sensor_id;sensor_type;location;lat;lon;timestamp;temperature;humidity
25945;SHT31;13742;49.306;8.636;2024-01-27T00:00:25;3.24;83.74
25945;SHT31;13742;49.306;8.636;2024-01-27T00:01:25;3.20;83.29
25945;SHT31;13742;49.306;8.636;2024-01-27T00:02:25;3.20;83.13
25945;SHT31;13742;49.306;8.636;2024-01-27T00:03:25;3.20;83.15
25945;SHT31;13742;49.306;8.636;2024-01-27T00:04:25;3.20;83.34
25945;SHT31;13742;49.306;8.636;2024-01-27T00:05:25;3.22;83.56
25945;SHT31;13742;49.306;8.636;2024-01-27T00:06:25;3.22;83.51
25945;SHT31;13742;49.306;8.636;2024-01-27T00:07:27;3.20;83.47
25945;SHT31;13742;49.306;8.636;2024-01-27T00:08:26;3.20;83.32
25945;SHT31;13742;49.306;8.636;2024-01-27T00:09:25;3.18;83.17
25945;SHT31;13742;49.306;8.636;2024-01-27T00:10:25;3.19;83.28
25945;SHT31;13742;49.306;8.636;2024-01-27T00:11:25;3.16;83.43
25945;SHT31;13742;49.306;8.636;2024-01-27T00:12:25;3.02;83.58
25945;SHT31;13742;49.306;8.636;2024-01-27T00:13:25;3.06;83.26
25945;SHT31;13742;49.306;8.636;2024-01-27T00:14:26;3.06;83.35
25945;SHT31;13742;49.306;8.636;2024-01-27T00:15:25;3.05;83.31
25945;SHT31;13742;49.306;8.636;2024-01-27T00:16:25;3.03;83.36
25945;SHT31;13742;49.306;8.636;2024-01-27T00:17:27;3.02;83.21
25945;SHT31;13742;49.306;8.636;2024-01-27T00:18:25;3.02;83.22
25945;SHT31;13742;49.306;8.636;2024-01-27T00:19:25;2.90;84.04
25945;SHT31;13742;49.306;8.636;2024-01-27T00:20:25;2.91;83.73
25945;SHT31;13742;49.306;8.636;2024-01-27T00:21:25;2.92;83.76
25945;SHT31;13742;49.306;8.636;2024-01-27T00:22:25;2.95;84.25
25945;SHT31;13742;49.306;8.636;2024-01-27T00:23:25;2.94;83.86
25945;SHT31;13742;49.306;8.636;2024-01-27T00:24:25;2.90;83.33
25945;SHT31;13742;49.306;8.636;2024-01-27T00:25:25;2.90;83.58
25945;SHT31;13742;49.306;8.636;2024-01-27T00:26:25;2.92;83.89
25945;SHT31;13742;49.306;8.636;2024-01-27T00:27:25;2.90;83.66
25945;SHT31;13742;49.306;8.636;2024-01-27T00:28:25;2.91;83.82
25945;SHT31;13742;49.306;8.636;2024-01-27T00:29:25;2.92;83.81
25945;SHT31;13742;49.306;8.636;2024-01-27T00:30:26;2.94;83.91
25945;SHT31;13742;49.306;8.636;2024-01-27T00:31:25;2.94;83.77
25945;SHT31;13742;49.306;8.636;2024-01-27T00:32:25;2.95;83.70
25945;SHT31;13742;49.306;8.636;2024-01-27T00:33:25;2.95;83.78
25945;SHT31;13742;49.306;8.636;2024-01-27T00:34:25;2.94;83.66
25945;SHT31;13742;49.306;8.636;2024-01-27T00:35:25;2.95;83.69
25945;SHT31;13742;49.306;8.636;2024-01-27T00:36:27;2.96;83.69
25945;SHT31;13742;49.306;8.636;2024-01-27T00:37:25;2.98;83.86
25945;SHT31;13742;49.306;8.636;2024-01-27T00:38:26;2.99;84.08
25945;SHT31;13742;49.306;8.636;2024-01-27T00:39:25;2.98;84.39
25945;SHT31;13742;49.306;8.636;2024-01-27T00:40:25;2.95;83.73
25945;SHT31;13742;49.306;8.636;2024-01-27T00:41:25;2.95;83.81
25945;SHT31;13742;49.306;8.636;2024-01-27T00:42:25;2.95;83.97
25945;SHT31;13742;49.306;8.636;2024-01-27T00:43:25;2.92;84.33
25945;SHT31;13742;49.306;8.636;2024-01-27T00:44:25;2.87;83.99
25945;SHT31;13742;49.306;8.636;2024-01-27T00:45:27;2.84;84.37
25945;SHT31;13742;49.306;8.636;2024-01-27T00:46:25;2.82;84.26
25945;SHT31;13742;49.306;8.636;2024-01-27T00:47:25;2.80;84.21
25945;SHT31;13742;49.306;8.636;2024-01-27T00:48:25;2.80;84.52
25945;SHT31;13742;49.306;8.636;2024-01-27T00:49:25;2.64;84.24
25945;SHT31;13742;49.306;8.636;2024-01-27T00:50:25;2.64;84.73
25945;SHT31;13742;49.306;8.636;2024-01-27T00:51:25;2.68;84.41
25945;SHT31;13742;49.306;8.636;2024-01-27T00:52:26;2.70;85.07
25945;SHT31;13742;49.306;8.636;2024-01-27T00:53:25;2.68;84.56
25945;SHT31;13742;49.306;8.636;2024-01-27T00:54:25;2.68;84.22
25945;SHT31;13742;49.306;8.636;2024-01-27T00:55:25;2.68;84.58
25945;SHT31;13742;49.306;8.636;2024-01-27T00:56:25;2.65;84.73
25945;SHT31;13742;49.306;8.636;2024-01-27T00:57:25;2.70;84.70
25945;SHT31;13742;49.306;8.636;2024-01-27T00:58:25;2.71;84.70
25945;SHT31;13742;49.306;8.636;2024-01-27T00:59:25;2.68;84.44
25945;SHT31;13742;49.306;8.636;2024-01-27T01:00:25;2.67;84.60
25945;SHT31;13742;49.306;8.636;2024-01-27T01:01:25;2.71;84.50
25945;SHT31;13742;49.306;8.636;2024-01-27T01:02:25;2.68;84.28
25945;SHT31;13742;49.306;8.636;2024-01-27T01:03:25;2.68;84.24
25945;SHT31;13742;49.306;8.636;2024-01-27T01:04:25;2.68;84.15
25945;SHT31;13742;49.306;8.636;2024-01-27T01:05:25;2.70;84.20
25945;SHT31;13742;49.306;8.636;2024-01-27T01:06:25;2.68;84.17
25945;SHT31;13742;49.306;8.636;2024-01-27T01:07:25;2.70;84.17
25945;SHT31;13742;49.306;8.636;2024-01-27T01:08:25;2.67;84.47
25945;SHT31;13742;49.306;8.636;2024-01-27T01:09:25;2.65;84.15
25945;SHT31;13742;49.306;8.636;2024-01-27T01:10:26;2.63;83.95
25945;SHT31;13742;49.306;8.636;2024-01-27T01:11:25;2.63;84.02
25945;SHT31;13742;49.306;8.636;2024-01-27T01:12:25;2.63;84.13
25945;SHT31;13742;49.306;8.636;2024-01-27T01:13:25;2.63;84.35
25945;SHT31;13742;49.306;8.636;2024-01-27T01:14:25;2.61;84.23
25945;SHT31;13742;49.306;8.636;2024-01-27T01:15:25;2.59;83.84
25945;SHT31;13742;49.306;8.636;2024-01-27T01:16:25;2.56;83.82
25945;SHT31;13742;49.306;8.636;2024-01-27T01:17:25;2.57;84.07
25945;SHT31;13742;49.306;8.636;2024-01-27T01:18:25;2.53;84.59
25945;SHT31;13742;49.306;8.636;2024-01-27T01:19:26;2.33;84.69
25945;SHT31;13742;49.306;8.636;2024-01-27T01:20:26;2.40;84.16
25945;SHT31;13742;49.306;8.636;2024-01-27T01:21:26;2.39;84.00
25945;SHT31;13742;49.306;8.636;2024-01-27T01:22:25;2.37;84.33
25945;SHT31;13742;49.306;8.636;2024-01-27T01:23:25;2.12;84.87
25945;SHT31;13742;49.306;8.636;2024-01-27T01:24:25;1.89;86.18
25945;SHT31;13742;49.306;8.636;2024-01-27T01:25:25;2.01;85.75
25945;SHT31;13742;49.306;8.636;2024-01-27T01:26:25;2.06;85.55
25945;SHT31;13742;49.306;8.636;2024-01-27T01:27:25;2.09;85.78
25945;SHT31;13742;49.306;8.636;2024-01-27T01:28:25;2.05;86.49
25945;SHT31;13742;49.306;8.636;2024-01-27T01:29:26;1.89;86.44
25945;SHT31;13742;49.306;8.636;2024-01-27T01:30:25;1.98;86.42
25945;SHT31;13742;49.306;8.636;2024-01-27T01:31:25;1.77;86.51
25945;SHT31;13742;49.306;8.636;2024-01-27T01:32:25;1.70;87.41
25945;SHT31;13742;49.306;8.636;2024-01-27T01:33:25;1.82;86.77
25945;SHT31;13742;49.306;8.636;2024-01-27T01:34:25;1.91;87.58
25945;SHT31;13742;49.306;8.636;2024-01-27T01:35:25;1.91;86.87
25945;SHT31;13742;49.306;8.636;2024-01-27T01:36:25;1.91;86.19
25945;SHT31;13742;49.306;8.636;2024-01-27T01:37:25;1.91;86.03
25945;SHT31;13742;49.306;8.636;2024-01-27T01:38:25;1.88;85.82
25945;SHT31;13742;49.306;8.636;2024-01-27T01:39:25;1.91;86.14
25945;SHT31;13742;49.306;8.636;2024-01-27T01:40:25;1.96;86.70
25945;SHT31;13742;49.306;8.636;2024-01-27T01:41:25;1.95;86.33
25945;SHT31;13742;49.306;8.636;2024-01-27T01:42:25;1.96;86.11
25945;SHT31;13742;49.306;8.636;2024-01-27T01:43:26;1.96;85.71
25945;SHT31;13742;49.306;8.636;2024-01-27T01:44:29;1.96;85.77
25945;SHT31;13742;49.306;8.636;2024-01-27T01:45:25;1.98;86.24
25945;SHT31;13742;49.306;8.636;2024-01-27T01:46:25;2.01;85.85
25945;SHT31;13742;49.306;8.636;2024-01-27T01:47:25;2.02;85.84
25945;SHT31;13742;49.306;8.636;2024-01-27T01:48:25;2.03;86.02
25945;SHT31;13742;49.306;8.636;2024-01-27T01:49:26;2.03;85.62
25945;SHT31;13742;49.306;8.636;2024-01-27T01:50:25;2.02;85.32
25945;SHT31;13742;49.306;8.636;2024-01-27T01:51:26;1.99;85.83
25945;SHT31;13742;49.306;8.636;2024-01-27T01:52:25;1.96;85.64
25945;SHT31;13742;49.306;8.636;2024-01-27T01:53:26;2.01;85.45
25945;SHT31;13742;49.306;8.636;2024-01-27T01:54:27;2.01;85.97
25945;SHT31;13742;49.306;8.636;2024-01-27T01:55:25;2.02;85.73
25945;SHT31;13742;49.306;8.636;2024-01-27T01:56:25;2.03;85.54
25945;SHT31;13742;49.306;8.636;2024-01-27T01:57:25;2.05;85.47
25945;SHT31;13742;49.306;8.636;2024-01-27T01:58:25;2.02;85.35
25945;SHT31;13742;49.306;8.636;2024-01-27T01:59:25;2.06;85.44
25945;SHT31;13742;49.306;8.636;2024-01-27T02:00:25;2.03;85.26
25945;SHT31;13742;49.306;8.636;2024-01-27T02:01:25;2.01;84.70
25945;SHT31;13742;49.306;8.636;2024-01-27T02:02:25;1.99;84.91
25945;SHT31;13742;49.306;8.636;2024-01-27T02:03:25;1.98;84.85
25945;SHT31;13742;49.306;8.636;2024-01-27T02:04:25;1.96;84.89
25945;SHT31;13742;49.306;8.636;2024-01-27T02:05:25;1.96;84.78
25945;SHT31;13742;49.306;8.636;2024-01-27T02:06:25;1.98;84.86
25945;SHT31;13742;49.306;8.636;2024-01-27T02:07:25;1.96;84.83
25945;SHT31;13742;49.306;8.636;2024-01-27T02:08:25;1.98;84.87
25945;SHT31;13742;49.306;8.636;2024-01-27T02:09:25;1.96;84.91
25945;SHT31;13742;49.306;8.636;2024-01-27T02:10:25;1.99;84.86
25945;SHT31;13742;49.306;8.636;2024-01-27T02:11:25;1.98;84.85
25945;SHT31;13742;49.306;8.636;2024-01-27T02:12:25;2.01;84.80
25945;SHT31;13742;49.306;8.636;2024-01-27T02:13:27;2.01;84.77
25945;SHT31;13742;49.306;8.636;2024-01-27T02:14:27;2.02;84.77
25945;SHT31;13742;49.306;8.636;2024-01-27T02:15:26;2.01;84.73
25945;SHT31;13742;49.306;8.636;2024-01-27T02:16:25;2.03;84.69
25945;SHT31;13742;49.306;8.636;2024-01-27T02:17:25;2.02;84.66
25945;SHT31;13742;49.306;8.636;2024-01-27T02:18:25;2.05;84.63
25945;SHT31;13742;49.306;8.636;2024-01-27T02:19:25;2.03;84.58
25945;SHT31;13742;49.306;8.636;2024-01-27T02:20:25;2.05;84.57
25945;SHT31;13742;49.306;8.636;2024-01-27T02:21:25;2.05;84.45
25945;SHT31;13742;49.306;8.636;2024-01-27T02:22:25;2.03;84.40
25945;SHT31;13742;49.306;8.636;2024-01-27T02:23:25;2.03;84.40
25945;SHT31;13742;49.306;8.636;2024-01-27T02:24:27;2.03;84.35
25945;SHT31;13742;49.306;8.636;2024-01-27T02:25:25;2.02;84.39
25945;SHT31;13742;49.306;8.636;2024-01-27T02:26:25;2.03;84.38
25945;SHT31;13742;49.306;8.636;2024-01-27T02:27:25;2.06;84.36
25945;SHT31;13742;49.306;8.636;2024-01-27T02:28:25;2.02;84.10
25945;SHT31;13742;49.306;8.636;2024-01-27T02:29:27;2.01;84.26
25945;SHT31;13742;49.306;8.636;2024-01-27T02:30:25;2.01;84.29
25945;SHT31;13742;49.306;8.636;2024-01-27T02:31:25;1.98;84.35
25945;SHT31;13742;49.306;8.636;2024-01-27T02:32:25;1.99;84.49
25945;SHT31;13742;49.306;8.636;2024-01-27T02:33:25;1.98;84.37
25945;SHT31;13742;49.306;8.636;2024-01-27T02:34:25;1.96;84.23
25945;SHT31;13742;49.306;8.636;2024-01-27T02:35:25;1.95;84.25
25945;SHT31;13742;49.306;8.636;2024-01-27T02:36:25;1.95;84.48
25945;SHT31;13742;49.306;8.636;2024-01-27T02:37:25;1.92;84.50
25945;SHT31;13742;49.306;8.636;2024-01-27T02:38:25;1.91;84.44
25945;SHT31;13742;49.306;8.636;2024-01-27T02:39:26;1.93;84.80
25945;SHT31;13742;49.306;8.636;2024-01-27T02:40:25;1.92;84.82
25945;SHT31;13742;49.306;8.636;2024-01-27T02:41:25;1.91;84.64
25945;SHT31;13742;49.306;8.636;2024-01-27T02:42:25;1.92;84.54
25945;SHT31;13742;49.306;8.636;2024-01-27T02:43:25;1.88;84.48
25945;SHT31;13742;49.306;8.636;2024-01-27T02:44:25;1.88;84.35
25945;SHT31;13742;49.306;8.636;2024-01-27T02:45:25;1.88;84.41
25945;SHT31;13742;49.306;8.636;2024-01-27T02:46:25;1.88;84.46
25945;SHT31;13742;49.306;8.636;2024-01-27T02:47:25;1.86;84.58
25945;SHT31;13742;49.306;8.636;2024-01-27T02:48:25;1.86;84.52
25945;SHT31;13742;49.306;8.636;2024-01-27T02:49:25;1.86;84.45
25945;SHT31;13742;49.306;8.636;2024-01-27T02:50:26;1.86;84.48
25945;SHT31;13742;49.306;8.636;2024-01-27T02:51:25;1.88;84.51
25945;SHT31;13742;49.306;8.636;2024-01-27T02:52:25;1.86;84.48
25945;SHT31;13742;49.306;8.636;2024-01-27T02:53:25;1.88;84.40
25945;SHT31;13742;49.306;8.636;2024-01-27T02:54:25;1.86;84.40
25945;SHT31;13742;49.306;8.636;2024-01-27T02:55:25;1.85;84.46
25945;SHT31;13742;49.306;8.636;2024-01-27T02:56:25;1.81;84.73
25945;SHT31;13742;49.306;8.636;2024-01-27T02:57:25;1.49;84.70
25945;SHT31;13742;49.306;8.636;2024-01-27T02:58:25;1.55;85.32
25945;SHT31;13742;49.306;8.636;2024-01-27T02:59:25;1.60;85.02
25945;SHT31;13742;49.306;8.636;2024-01-27T03:00:25;1.62;85.25
25945;SHT31;13742;49.306;8.636;2024-01-27T03:01:25;1.65;85.80
25945;SHT31;13742;49.306;8.636;2024-01-27T03:02:25;1.67;85.67
25945;SHT31;13742;49.306;8.636;2024-01-27T03:03:25;1.70;85.68
25945;SHT31;13742;49.306;8.636;2024-01-27T03:04:25;1.71;85.48
25945;SHT31;13742;49.306;8.636;2024-01-27T03:05:25;1.65;85.17
25945;SHT31;13742;49.306;8.636;2024-01-27T03:06:25;1.64;85.08
25945;SHT31;13742;49.306;8.636;2024-01-27T03:07:25;1.67;85.51
25945;SHT31;13742;49.306;8.636;2024-01-27T03:08:26;1.67;85.24
25945;SHT31;13742;49.306;8.636;2024-01-27T03:09:25;1.67;85.18
25945;SHT31;13742;49.306;8.636;2024-01-27T03:10:25;1.67;85.06
25945;SHT31;13742;49.306;8.636;2024-01-27T03:11:25;1.64;84.93
25945;SHT31;13742;49.306;8.636;2024-01-27T03:12:25;1.65;85.02
25945;SHT31;13742;49.306;8.636;2024-01-27T03:13:25;1.65;85.01
25945;SHT31;13742;49.306;8.636;2024-01-27T03:14:25;1.67;85.02
25945;SHT31;13742;49.306;8.636;2024-01-27T03:15:25;1.65;84.94
25945;SHT31;13742;49.306;8.636;2024-01-27T03:16:25;1.65;84.87
25945;SHT31;13742;49.306;8.636;2024-01-27T03:17:25;1.67;84.85
25945;SHT31;13742;49.306;8.636;2024-01-27T03:18:25;1.68;84.85
25945;SHT31;13742;49.306;8.636;2024-01-27T03:19:25;1.65;84.86
25945;SHT31;13742;49.306;8.636;2024-01-27T03:20:25;1.68;84.78
25945;SHT31;13742;49.306;8.636;2024-01-27T03:21:25;1.67;84.76
25945;SHT31;13742;49.306;8.636;2024-01-27T03:22:25;1.65;84.72
25945;SHT31;13742;49.306;8.636;2024-01-27T03:23:25;1.67;84.74
25945;SHT31;13742;49.306;8.636;2024-01-27T03:24:25;1.65;84.67
25945;SHT31;13742;49.306;8.636;2024-01-27T03:25:25;1.65;84.71
25945;SHT31;13742;49.306;8.636;2024-01-27T03:26:25;1.67;84.80
25945;SHT31;13742;49.306;8.636;2024-01-27T03:27:25;1.65;84.69
25945;SHT31;13742;49.306;8.636;2024-01-27T03:28:25;1.67;84.60
25945;SHT31;13742;49.306;8.636;2024-01-27T03:29:25;1.64;84.48
25945;SHT31;13742;49.306;8.636;2024-01-27T03:30:25;1.64;84.43
25945;SHT31;13742;49.306;8.636;2024-01-27T03:31:30;1.62;84.44
25945;SHT31;13742;49.306;8.636;2024-01-27T03:32:25;1.60;84.79
25945;SHT31;13742;49.306;8.636;2024-01-27T03:33:26;1.62;84.93
25945;SHT31;13742;49.306;8.636;2024-01-27T03:34:27;1.61;84.77
25945;SHT31;13742;49.306;8.636;2024-01-27T03:35:25;1.57;84.59
25945;SHT31;13742;49.306;8.636;2024-01-27T03:36:25;1.58;84.53
25945;SHT31;13742;49.306;8.636;2024-01-27T03:37:25;1.55;84.57
25945;SHT31;13742;49.306;8.636;2024-01-27T03:38:26;1.53;84.53
25945;SHT31;13742;49.306;8.636;2024-01-27T03:39:25;1.53;84.63
25945;SHT31;13742;49.306;8.636;2024-01-27T03:40:25;1.57;84.87
25945;SHT31;13742;49.306;8.636;2024-01-27T03:41:25;1.57;84.69
25945;SHT31;13742;49.306;8.636;2024-01-27T03:42:25;1.55;84.59
25945;SHT31;13742;49.306;8.636;2024-01-27T03:43:25;1.53;84.56
25945;SHT31;13742;49.306;8.636;2024-01-27T03:44:25;1.53;84.62
25945;SHT31;13742;49.306;8.636;2024-01-27T03:45:25;1.55;84.80
25945;SHT31;13742;49.306;8.636;2024-01-27T03:46:25;1.55;84.76
25945;SHT31;13742;49.306;8.636;2024-01-27T03:47:25;1.57;84.81
25945;SHT31;13742;49.306;8.636;2024-01-27T03:48:25;1.57;84.75
25945;SHT31;13742;49.306;8.636;2024-01-27T03:49:25;1.55;84.76
25945;SHT31;13742;49.306;8.636;2024-01-27T03:50:25;1.55;84.58
25945;SHT31;13742;49.306;8.636;2024-01-27T03:51:26;1.54;84.63
25945;SHT31;13742;49.306;8.636;2024-01-27T03:52:25;1.53;84.59
25945;SHT31;13742;49.306;8.636;2024-01-27T03:53:25;1.53;84.60
25945;SHT31;13742;49.306;8.636;2024-01-27T03:54:25;1.50;84.48
25945;SHT31;13742;49.306;8.636;2024-01-27T03:55:25;1.46;84.56
25945;SHT31;13742;49.306;8.636;2024-01-27T03:56:25;1.49;84.75
25945;SHT31;13742;49.306;8.636;2024-01-27T03:57:25;1.44;84.91
25945;SHT31;13742;49.306;8.636;2024-01-27T03:58:25;1.47;85.03
25945;SHT31;13742;49.306;8.636;2024-01-27T03:59:25;1.47;85.01
25945;SHT31;13742;49.306;8.636;2024-01-27T04:00:26;1.46;84.92
25945;SHT31;13742;49.306;8.636;2024-01-27T04:01:25;1.49;84.95
25945;SHT31;13742;49.306;8.636;2024-01-27T04:02:25;1.41;84.80
25945;SHT31;13742;49.306;8.636;2024-01-27T04:03:25;1.43;84.75
25945;SHT31;13742;49.306;8.636;2024-01-27T04:04:25;1.46;84.83
25945;SHT31;13742;49.306;8.636;2024-01-27T04:05:26;1.44;84.85
25945;SHT31;13742;49.306;8.636;2024-01-27T04:06:25;1.44;84.75
25945;SHT31;13742;49.306;8.636;2024-01-27T04:07:25;1.43;84.80
25945;SHT31;13742;49.306;8.636;2024-01-27T04:08:25;1.44;84.79
25945;SHT31;13742;49.306;8.636;2024-01-27T04:09:25;1.44;84.86
25945;SHT31;13742;49.306;8.636;2024-01-27T04:10:25;1.44;84.88
25945;SHT31;13742;49.306;8.636;2024-01-27T04:11:25;1.43;84.70
25945;SHT31;13742;49.306;8.636;2024-01-27T04:12:25;1.44;84.66
25945;SHT31;13742;49.306;8.636;2024-01-27T04:13:25;1.43;84.66
25945;SHT31;13742;49.306;8.636;2024-01-27T04:14:25;1.41;84.80
25945;SHT31;13742;49.306;8.636;2024-01-27T04:15:25;1.43;84.75
25945;SHT31;13742;49.306;8.636;2024-01-27T04:16:25;1.46;84.91
25945;SHT31;13742;49.306;8.636;2024-01-27T04:17:25;1.46;84.98
25945;SHT31;13742;49.306;8.636;2024-01-27T04:18:25;1.46;84.97
25945;SHT31;13742;49.306;8.636;2024-01-27T04:19:25;1.44;84.81
25945;SHT31;13742;49.306;8.636;2024-01-27T04:20:25;1.43;84.64
25945;SHT31;13742;49.306;8.636;2024-01-27T04:21:25;1.40;84.63
25945;SHT31;13742;49.306;8.636;2024-01-27T04:22:25;1.40;84.68
25945;SHT31;13742;49.306;8.636;2024-01-27T04:23:25;1.41;84.79
25945;SHT31;13742;49.306;8.636;2024-01-27T04:24:25;1.40;84.77
25945;SHT31;13742;49.306;8.636;2024-01-27T04:25:25;1.40;84.89
25945;SHT31;13742;49.306;8.636;2024-01-27T04:26:25;1.41;84.89
25945;SHT31;13742;49.306;8.636;2024-01-27T04:27:28;1.40;84.93
25945;SHT31;13742;49.306;8.636;2024-01-27T04:28:25;1.37;84.79
25945;SHT31;13742;49.306;8.636;2024-01-27T04:29:25;1.36;84.75
25945;SHT31;13742;49.306;8.636;2024-01-27T04:30:25;1.37;84.77
25945;SHT31;13742;49.306;8.636;2024-01-27T04:31:25;1.37;84.94
25945;SHT31;13742;49.306;8.636;2024-01-27T04:32:26;1.37;84.84
25945;SHT31;13742;49.306;8.636;2024-01-27T04:33:25;1.36;84.80
25945;SHT31;13742;49.306;8.636;2024-01-27T04:34:25;1.36;84.81
25945;SHT31;13742;49.306;8.636;2024-01-27T04:35:25;1.34;84.78
25945;SHT31;13742;49.306;8.636;2024-01-27T04:36:28;1.30;84.76
25945;SHT31;13742;49.306;8.636;2024-01-27T04:37:25;1.30;84.77
25945;SHT31;13742;49.306;8.636;2024-01-27T04:38:25;1.29;84.85
25945;SHT31;13742;49.306;8.636;2024-01-27T04:39:25;1.29;85.03
25945;SHT31;13742;49.306;8.636;2024-01-27T04:40:25;1.30;85.15
25945;SHT31;13742;49.306;8.636;2024-01-27T04:41:25;1.27;85.15
25945;SHT31;13742;49.306;8.636;2024-01-27T04:42:25;1.26;84.89
25945;SHT31;13742;49.306;8.636;2024-01-27T04:43:25;1.26;84.88
25945;SHT31;13742;49.306;8.636;2024-01-27T04:44:25;1.26;85.08
25945;SHT31;13742;49.306;8.636;2024-01-27T04:45:25;1.23;85.06
25945;SHT31;13742;49.306;8.636;2024-01-27T04:46:25;1.23;84.70
25945;SHT31;13742;49.306;8.636;2024-01-27T04:47:25;1.19;84.69
25945;SHT31;13742;49.306;8.636;2024-01-27T04:48:25;1.19;84.75
25945;SHT31;13742;49.306;8.636;2024-01-27T04:49:25;1.22;85.07
25945;SHT31;13742;49.306;8.636;2024-01-27T04:50:25;1.20;85.16
25945;SHT31;13742;49.306;8.636;2024-01-27T04:51:25;1.20;84.98
25945;SHT31;13742;49.306;8.636;2024-01-27T04:52:26;1.19;84.91
25945;SHT31;13742;49.306;8.636;2024-01-27T04:53:25;1.19;84.91
25945;SHT31;13742;49.306;8.636;2024-01-27T04:54:25;1.19;85.01
25945;SHT31;13742;49.306;8.636;2024-01-27T04:55:25;1.19;85.09
25945;SHT31;13742;49.306;8.636;2024-01-27T04:56:25;1.20;85.08
25945;SHT31;13742;49.306;8.636;2024-01-27T04:57:25;1.18;85.04
25945;SHT31;13742;49.306;8.636;2024-01-27T04:58:25;1.20;85.08
25945;SHT31;13742;49.306;8.636;2024-01-27T04:59:25;1.15;84.77
25945;SHT31;13742;49.306;8.636;2024-01-27T05:00:28;1.12;84.81
25945;SHT31;13742;49.306;8.636;2024-01-27T05:01:25;1.12;84.99
25945;SHT31;13742;49.306;8.636;2024-01-27T05:02:25;1.13;84.92
25945;SHT31;13742;49.306;8.636;2024-01-27T05:03:25;1.15;85.03
25945;SHT31;13742;49.306;8.636;2024-01-27T05:04:26;1.16;85.04
25945;SHT31;13742;49.306;8.636;2024-01-27T05:05:25;1.13;85.03
25945;SHT31;13742;49.306;8.636;2024-01-27T05:06:25;1.16;85.11
25945;SHT31;13742;49.306;8.636;2024-01-27T05:07:25;1.15;85.21
25945;SHT31;13742;49.306;8.636;2024-01-27T05:08:25;1.15;84.96
25945;SHT31;13742;49.306;8.636;2024-01-27T05:09:25;1.12;84.90
25945;SHT31;13742;49.306;8.636;2024-01-27T05:10:25;1.10;84.88
25945;SHT31;13742;49.306;8.636;2024-01-27T05:11:30;1.10;84.91
25945;SHT31;13742;49.306;8.636;2024-01-27T05:12:25;1.10;84.89
25945;SHT31;13742;49.306;8.636;2024-01-27T05:13:25;1.10;84.93
25945;SHT31;13742;49.306;8.636;2024-01-27T05:14:25;1.06;84.83
25945;SHT31;13742;49.306;8.636;2024-01-27T05:15:25;1.06;84.81
25945;SHT31;13742;49.306;8.636;2024-01-27T05:16:25;1.07;84.83
25945;SHT31;13742;49.306;8.636;2024-01-27T05:17:25;1.07;84.85
25945;SHT31;13742;49.306;8.636;2024-01-27T05:18:25;1.06;84.89
25945;SHT31;13742;49.306;8.636;2024-01-27T05:19:25;1.09;84.97
25945;SHT31;13742;49.306;8.636;2024-01-27T05:20:25;1.09;85.02
25945;SHT31;13742;49.306;8.636;2024-01-27T05:21:25;1.09;84.99
25945;SHT31;13742;49.306;8.636;2024-01-27T05:22:25;1.07;85.21
25945;SHT31;13742;49.306;8.636;2024-01-27T05:23:25;1.07;85.20
25945;SHT31;13742;49.306;8.636;2024-01-27T05:24:25;1.09;85.09
25945;SHT31;13742;49.306;8.636;2024-01-27T05:25:25;1.07;85.22
25945;SHT31;13742;49.306;8.636;2024-01-27T05:26:25;1.07;85.21
25945;SHT31;13742;49.306;8.636;2024-01-27T05:27:25;1.04;85.24
25945;SHT31;13742;49.306;8.636;2024-01-27T05:28:25;1.03;85.20
25945;SHT31;13742;49.306;8.636;2024-01-27T05:29:28;1.03;85.35
25945;SHT31;13742;49.306;8.636;2024-01-27T05:30:25;1.02;85.40
25945;SHT31;13742;49.306;8.636;2024-01-27T05:31:26;1.04;85.49
25945;SHT31;13742;49.306;8.636;2024-01-27T05:32:25;1.02;85.51
25945;SHT31;13742;49.306;8.636;2024-01-27T05:33:25;1.03;85.62
25945;SHT31;13742;49.306;8.636;2024-01-27T05:34:25;1.03;85.67
25945;SHT31;13742;49.306;8.636;2024-01-27T05:35:25;1.04;85.68
25945;SHT31;13742;49.306;8.636;2024-01-27T05:36:25;0.99;85.46
25945;SHT31;13742;49.306;8.636;2024-01-27T05:37:25;1.02;85.52
25945;SHT31;13742;49.306;8.636;2024-01-27T05:38:26;1.03;85.56
25945;SHT31;13742;49.306;8.636;2024-01-27T05:39:25;1.02;85.46
25945;SHT31;13742;49.306;8.636;2024-01-27T05:40:25;1.03;85.47
25945;SHT31;13742;49.306;8.636;2024-01-27T05:41:26;1.03;85.38
25945;SHT31;13742;49.306;8.636;2024-01-27T05:42:25;0.98;85.25
25945;SHT31;13742;49.306;8.636;2024-01-27T05:43:25;0.99;85.27
25945;SHT31;13742;49.306;8.636;2024-01-27T05:44:25;0.99;85.45
25945;SHT31;13742;49.306;8.636;2024-01-27T05:45:26;0.96;85.47
25945;SHT31;13742;49.306;8.636;2024-01-27T05:46:25;0.99;85.56
25945;SHT31;13742;49.306;8.636;2024-01-27T05:47:26;0.98;85.47
25945;SHT31;13742;49.306;8.636;2024-01-27T05:48:25;0.96;85.45
25945;SHT31;13742;49.306;8.636;2024-01-27T05:49:25;0.95;85.35
25945;SHT31;13742;49.306;8.636;2024-01-27T05:50:26;0.92;85.51
25945;SHT31;13742;49.306;8.636;2024-01-27T05:51:25;0.92;85.77
25945;SHT31;13742;49.306;8.636;2024-01-27T05:52:25;0.91;85.58
25945;SHT31;13742;49.306;8.636;2024-01-27T05:53:26;0.91;85.67
25945;SHT31;13742;49.306;8.636;2024-01-27T05:54:25;0.91;85.39
25945;SHT31;13742;49.306;8.636;2024-01-27T05:55:25;0.91;85.34
25945;SHT31;13742;49.306;8.636;2024-01-27T05:56:25;0.91;85.31
25945;SHT31;13742;49.306;8.636;2024-01-27T05:57:25;0.88;85.41
25945;SHT31;13742;49.306;8.636;2024-01-27T05:58:25;0.89;85.47
25945;SHT31;13742;49.306;8.636;2024-01-27T05:59:25;0.91;85.46
25945;SHT31;13742;49.306;8.636;2024-01-27T06:00:25;0.89;85.58
25945;SHT31;13742;49.306;8.636;2024-01-27T06:01:25;0.91;85.60
25945;SHT31;13742;49.306;8.636;2024-01-27T06:02:25;0.89;85.49
25945;SHT31;13742;49.306;8.636;2024-01-27T06:03:26;0.88;85.30
25945;SHT31;13742;49.306;8.636;2024-01-27T06:04:25;0.85;85.38
25945;SHT31;13742;49.306;8.636;2024-01-27T06:05:25;0.83;85.37
25945;SHT31;13742;49.306;8.636;2024-01-27T06:06:25;0.83;85.54
25945;SHT31;13742;49.306;8.636;2024-01-27T06:07:25;0.79;85.37
25945;SHT31;13742;49.306;8.636;2024-01-27T06:08:25;0.81;85.38
25945;SHT31;13742;49.306;8.636;2024-01-27T06:09:25;0.78;85.42
25945;SHT31;13742;49.306;8.636;2024-01-27T06:10:25;0.76;85.59
25945;SHT31;13742;49.306;8.636;2024-01-27T06:11:25;0.79;85.74
25945;SHT31;13742;49.306;8.636;2024-01-27T06:12:25;0.78;85.70
25945;SHT31;13742;49.306;8.636;2024-01-27T06:13:25;0.76;85.73
25945;SHT31;13742;49.306;8.636;2024-01-27T06:14:25;0.76;85.71
25945;SHT31;13742;49.306;8.636;2024-01-27T06:15:25;0.78;85.52
25945;SHT31;13742;49.306;8.636;2024-01-27T06:16:25;0.76;85.52
25945;SHT31;13742;49.306;8.636;2024-01-27T06:17:25;0.76;85.52
25945;SHT31;13742;49.306;8.636;2024-01-27T06:18:25;0.78;85.52
25945;SHT31;13742;49.306;8.636;2024-01-27T06:19:25;0.75;85.47
25945;SHT31;13742;49.306;8.636;2024-01-27T06:20:25;0.75;85.47
25945;SHT31;13742;49.306;8.636;2024-01-27T06:21:25;0.76;85.52
25945;SHT31;13742;49.306;8.636;2024-01-27T06:22:25;0.73;85.61
25945;SHT31;13742;49.306;8.636;2024-01-27T06:23:25;0.75;85.58
25945;SHT31;13742;49.306;8.636;2024-01-27T06:24:25;0.73;85.34